Time;durP1;ratioP1;P1;durP2;ratioP2;P2;SDS_P1;SDS_P2;PMS_P1;PMS_P2;Temp;Humidity;BMP_temperature;BMP_pressure;BME280_temperature;BME280_humidity;BME280_pressure;Samples;Min_cycle;Max_cycle;Signal;HPM_P1;HPM_P2
2022/04/22 00:01:35;;;;;;;9.53;8.73;;;8.40;99.90;;;9.07;69.72;96741.00;5275260;28;20218;-50
2022/04/22 00:04:08;;;;;;;10.33;9.33;;;8.30;99.90;;;9.02;69.94;96736.59;5276812;28;20195;-51
2022/04/22 00:06:41;;;;;;;10.37;9.37;;;8.30;99.90;;;9.01;70.24;96732.31;5278825;28;20593;-49
2022/04/22 00:09:14;;;;;;;9.90;9.10;;;8.30;99.90;;;8.98;70.71;96737.22;5279628;28;20619;-53
2022/04/22 00:11:47;;;;;;;10.00;9.10;;;8.30;99.90;;;8.96;70.50;96736.31;5285297;28;20234;-50
2022/04/22 00:14:22;;;;;;;9.63;8.83;;;8.20;99.90;;;8.94;70.88;96735.38;5286471;28;20191;-53
2022/04/22 00:16:55;;;;;;;10.63;9.63;;;8.20;99.90;;;8.88;70.98;96724.91;5276641;28;20246;-51
2022/04/22 00:19:29;;;;;;;9.93;9.13;;;8.20;99.90;;;8.83;70.97;96731.47;5279034;28;20219;-52
2022/04/22 00:22:03;;;;;;;10.50;9.50;;;8.10;99.90;;;8.91;70.60;96727.59;5274087;28;20252;-49
2022/04/22 00:24:36;;;;;;;10.13;9.37;;;8.10;99.90;;;8.88;71.63;96729.13;5272099;28;20196;-52
2022/04/22 00:27:09;;;;;;;10.13;9.27;;;8.10;99.90;;;8.95;71.02;96731.13;5279348;28;20227;-53
2022/04/22 00:29:44;;;;;;;10.00;9.20;;;8.10;99.90;;;8.87;71.53;96732.47;5276384;28;20622;-53
2022/04/22 00:32:17;;;;;;;9.70;8.80;;;8.10;99.90;;;8.87;71.41;96730.81;5272197;28;20209;-50
2022/04/22 00:34:50;;;;;;;9.90;8.90;;;8.10;99.90;;;8.79;71.57;96729.59;5276399;28;20227;-56
2022/04/22 00:37:23;;;;;;;9.67;8.80;;;8.10;99.90;;;8.68;71.62;96726.53;5275802;28;20230;-50
2022/04/22 00:39:56;;;;;;;10.20;9.20;;;8.00;99.90;;;8.69;71.42;96735.06;5274921;28;20295;-51
2022/04/22 00:42:29;;;;;;;10.40;9.50;;;7.90;99.90;;;8.67;72.35;96727.34;5272709;28;20282;-49
2022/04/22 00:45:05;;;;;;;10.83;9.93;;;7.90;99.90;;;8.63;72.25;96737.31;5273522;28;20195;-53
2022/04/22 00:47:38;;;;;;;10.27;9.37;;;7.90;99.90;;;8.63;72.26;96719.50;5278603;28;20233;-49
2022/04/22 00:50:11;;;;;;;10.60;9.70;;;7.90;99.90;;;8.57;72.46;96720.09;5269369;28;20307;-52
2022/04/22 00:52:44;;;;;;;10.87;9.87;;;7.80;99.90;;;8.61;72.67;96710.91;5275167;28;20287;-49
2022/04/22 00:55:17;;;;;;;10.83;9.83;;;7.80;99.90;;;8.56;73.40;96714.13;5273896;28;20246;-51
2022/04/22 00:57:51;;;;;;;10.87;9.90;;;7.80;99.90;;;8.64;72.74;96705.94;5273604;28;20670;-50
2022/04/22 01:00:26;;;;;;;10.83;9.83;;;7.80;99.90;;;8.57;72.58;96703.13;5272075;28;20286;-49
2022/04/22 01:02:59;;;;;;;9.73;8.90;;;7.80;99.90;;;8.49;72.60;96704.44;5272403;28;20241;-52
2022/04/22 01:11:16;;;;;;;11.87;10.87;;;7.70;99.90;;;8.43;73.22;96696.53;5273769;28;20255;-53
2022/04/22 01:13:50;;;;;;;11.33;10.23;;;7.60;99.90;;;8.34;73.60;96694.41;5281765;28;20226;-50
2022/04/22 01:16:24;;;;;;;12.27;11.17;;;7.50;99.90;;;8.21;74.34;96692.09;5281994;28;21214;-54
2022/04/22 01:18:57;;;;;;;12.30;11.30;;;7.40;99.90;;;8.21;74.41;96688.66;5279803;28;20643;-52
2022/04/22 01:21:32;;;;;;;12.70;11.50;;;7.40;99.90;;;8.23;74.61;96681.97;5276312;28;20633;-49
2022/04/22 01:24:05;;;;;;;12.33;11.17;;;7.40;99.90;;;8.13;75.11;96679.00;5278488;28;20436;-50
2022/04/22 01:26:38;;;;;;;12.10;10.90;;;7.30;99.90;;;8.15;75.18;96678.19;5277839;28;20307;-50
2022/04/22 01:29:13;;;;;;;13.27;12.07;;;7.30;99.90;;;8.28;74.46;96667.78;5280126;28;20616;-50
2022/04/22 01:31:47;;;;;;;13.07;11.87;;;7.40;99.90;;;8.16;74.94;96669.78;5279753;28;20249;-52
2022/04/22 01:34:20;;;;;;;13.70;12.30;;;7.40;99.90;;;8.09;76.04;96669.47;5275450;28;20204;-50
2022/04/22 01:36:54;;;;;;;13.13;11.93;;;7.40;99.90;;;8.09;75.74;96664.38;5279097;28;20318;-50
2022/04/22 01:39:29;;;;;;;12.70;11.50;;;7.40;99.90;;;8.07;75.67;96662.59;5276714;28;20291;-49
2022/04/22 01:42:02;;;;;;;14.03;12.73;;;7.30;99.90;;;8.08;75.17;96660.09;5279737;28;20263;-51
2022/04/22 01:44:36;;;;;;;14.17;12.87;;;7.30;99.90;;;7.98;75.89;96657.03;5279825;28;20243;-50
2022/04/22 01:47:09;;;;;;;14.47;13.20;;;7.20;99.90;;;7.91;76.29;96645.69;5282258;28;20226;-50
2022/04/22 01:49:42;;;;;;;15.47;14.07;;;7.10;99.90;;;7.91;76.35;96648.25;5284227;28;20672;-49
2022/04/22 01:52:17;;;;;;;15.27;13.80;;;7.10;99.90;;;7.86;76.42;96635.28;5283067;28;20314;-50
2022/04/22 01:54:51;;;;;;;15.90;14.30;;;7.10;99.90;;;7.95;76.36;96642.50;5281158;28;20199;-49
2022/04/22 01:57:24;;;;;;;15.13;13.73;;;7.10;99.90;;;7.91;76.56;96640.63;5284217;28;20342;-49
2022/04/22 01:59:59;;;;;;;14.87;13.57;;;7.20;99.90;;;7.95;76.87;96636.53;5283557;28;20256;-53
2022/04/22 02:02:32;;;;;;;16.63;15.07;;;7.20;99.90;;;7.99;76.58;96634.22;5286807;27;20565;-51
2022/04/22 02:05:06;;;;;;;16.47;14.87;;;7.20;99.90;;;7.95;76.88;96631.44;5283092;28;20571;-49
2022/04/22 02:07:41;;;;;;;15.50;14.00;;;7.20;99.90;;;7.93;76.69;96628.84;5287213;28;20282;-55
2022/04/22 02:10:15;;;;;;;16.40;14.73;;;7.20;99.90;;;7.97;76.80;96624.78;5285426;28;20245;-50
2022/04/22 02:12:49;;;;;;;17.20;15.50;;;7.20;99.90;;;7.83;76.63;96619.03;5286652;28;20255;-49
2022/04/22 02:15:24;;;;;;;17.10;15.40;;;7.10;99.90;;;7.81;78.22;96616.44;5285540;28;20613;-51
2022/04/22 02:17:57;;;;;;;17.77;15.93;;;7.00;99.90;;;7.72;77.53;96621.06;5287525;28;20568;-48
2022/04/22 02:20:30;;;;;;;18.00;16.30;;;7.00;99.90;;;7.72;77.46;96617.63;5278323;28;20249;-50
2022/04/22 02:23:05;;;;;;;19.23;17.33;;;7.00;99.90;;;7.73;77.92;96616.88;5283438;28;20240;-55
2022/04/22 02:25:38;;;;;;;18.47;16.67;;;7.00;99.90;;;7.74;78.06;96616.06;5277172;28;20605;-49
2022/04/22 02:31:03;;;;;;;17.27;15.57;;;7.00;99.90;;;7.65;78.20;96612.28;5273481;28;20335;-51
2022/04/22 02:33:39;;;;;;;17.53;15.73;;;6.90;99.90;;;7.60;78.45;96606.09;5280505;28;20226;-51
2022/04/22 02:36:15;;;;;;;18.37;16.67;;;6.80;99.90;;;7.68;78.02;96603.91;5280987;28;20306;-49
2022/04/22 02:38:49;;;;;;;17.37;15.73;;;6.80;99.90;;;7.63;77.49;96600.28;5278266;28;20650;-49
2022/04/22 02:47:04;;;;;;;19.37;17.47;;;6.80;99.90;;;7.48;78.58;96592.78;5286783;27;20407;-49
2022/04/22 02:49:38;;;;;;;19.40;17.40;;;6.70;99.90;;;7.55;79.58;96582.09;5276634;28;20286;-50
2022/04/22 02:52:12;;;;;;;20.17;18.17;;;6.80;99.90;;;7.54;79.44;96585.44;5283528;28;20695;-55
2022/04/22 02:54:46;;;;;;;19.37;17.27;;;6.80;99.90;;;7.57;79.93;96587.28;5280132;28;20291;-54
2022/04/22 02:57:19;;;;;;;19.87;17.77;;;6.80;99.90;;;7.55;79.43;96588.88;5284916;28;20252;-53
2022/04/22 02:59:53;;;;;;;19.47;17.37;;;6.80;99.90;;;7.52;78.81;96578.56;5283678;28;20208;-49
2022/04/22 03:02:26;;;;;;;20.77;18.33;;;6.70;99.90;;;7.51;79.63;96572.59;5282795;28;20368;-50
2022/04/22 03:04:59;;;;;;;19.23;17.33;;;6.70;99.90;;;7.41;79.33;96578.03;5281117;28;20202;-52
2022/04/22 03:07:32;;;;;;;18.87;17.00;;;6.60;99.90;;;7.34;78.98;96579.41;5280549;28;20662;-52
2022/04/22 03:10:08;;;;;;;21.33;19.13;;;6.50;99.90;;;7.31;79.54;96573.31;5281022;28;20319;-55
2022/04/22 03:12:42;;;;;;;20.57;18.43;;;6.40;99.90;;;7.32;79.57;96572.50;5278467;28;20286;-49
2022/04/22 03:15:16;;;;;;;21.03;18.93;;;6.50;99.90;;;7.28;79.58;96558.78;5282861;28;20249;-49
2022/04/22 03:17:50;;;;;;;20.67;18.50;;;6.50;99.90;;;7.25;80.30;96562.84;5283130;28;20247;-53
2022/04/22 03:20:23;;;;;;;22.20;19.90;;;6.50;99.90;;;7.25;80.28;96568.81;5277315;28;20663;-48
2022/04/22 03:22:56;;;;;;;22.13;19.80;;;6.40;99.90;;;7.13;81.21;96574.16;5278882;28;20286;-49
2022/04/22 03:25:30;;;;;;;22.17;19.93;;;6.50;99.90;;;7.09;80.41;96572.25;5277416;28;20285;-50
2022/04/22 03:28:06;;;;;;;21.10;18.87;;;6.40;99.90;;;7.13;80.50;96579.25;5279884;28;20218;-52
2022/04/22 03:30:39;;;;;;;22.57;20.27;;;6.40;99.90;;;7.12;80.58;96577.47;5280757;28;20399;-51
2022/04/22 03:33:12;;;;;;;22.83;20.53;;;6.20;99.90;;;7.09;81.15;96581.53;5283494;28;20210;-49
2022/04/22 03:35:50;;;;;;;22.60;20.00;;;6.20;99.90;;;6.98;81.28;96570.84;5276904;28;20310;-52
2022/04/22 03:38:24;;;;;;;22.17;19.90;;;6.10;99.90;;;7.01;81.66;96573.56;5284482;28;20187;-54
2022/04/22 03:40:58;;;;;;;24.73;22.03;;;6.20;99.90;;;6.98;82.09;96573.38;5282363;28;20644;-49
2022/04/22 03:43:31;;;;;;;23.13;20.80;;;6.20;99.90;;;7.01;82.23;96573.56;5282243;28;20182;-49
2022/04/22 03:46:04;;;;;;;22.73;20.20;;;6.20;99.90;;;7.05;81.35;96569.50;5284516;28;20638;-50
2022/04/22 03:48:37;;;;;;;23.80;21.33;;;6.30;99.90;;;7.14;81.85;96560.66;5280746;28;20195;-51
2022/04/22 03:51:10;;;;;;;22.73;20.33;;;6.40;99.90;;;7.15;81.63;96567.50;5280060;28;20231;-50
2022/04/22 03:53:43;;;;;;;23.30;20.63;;;6.40;99.90;;;7.16;80.94;96569.22;5277102;28;20207;-50
2022/04/22 03:59:09;;;;;;;23.80;21.03;;;6.30;99.90;;;7.15;80.88;96581.84;5281170;28;20302;-50
2022/04/22 04:01:42;;;;;;;24.00;21.27;;;6.30;99.90;;;7.12;81.27;96572.41;5279025;28;20289;-50
2022/04/22 04:04:15;;;;;;;22.27;19.93;;;6.30;99.90;;;7.13;80.68;96574.16;5282396;28;20198;-49
2022/04/22 04:06:48;;;;;;;21.97;19.67;;;6.30;99.90;;;7.08;80.46;96560.34;5282427;28;20267;-49
2022/04/22 04:17:56;;;;;;;23.50;21.10;;;6.10;99.90;;;6.97;81.05;96556.41;5274795;28;20639;-51
2022/04/22 04:23:20;;;;;;;24.37;21.77;;;6.10;99.90;;;6.83;80.83;96558.25;5280198;28;20338;-48
2022/04/22 04:25:53;;;;;;;23.67;20.80;;;5.90;99.90;;;6.84;80.83;96561.66;5283382;28;20268;-49
2022/04/22 04:28:28;;;;;;;23.27;20.90;;;6.00;99.90;;;6.86;80.76;96567.69;5280837;28;20629;-49
2022/04/22 04:31:01;;;;;;;21.03;18.87;;;6.00;99.90;;;6.90;80.47;96573.03;5282504;28;20293;-50
2022/04/22 04:33:36;;;;;;;22.33;19.93;;;6.00;99.90;;;6.79;80.73;96576.69;5276083;28;20679;-49
2022/04/22 04:36:10;;;;;;;21.87;19.57;;;5.90;99.90;;;6.65;80.71;96573.44;5281139;28;20303;-53
2022/04/22 04:38:44;;;;;;;23.37;20.93;;;5.80;99.90;;;6.63;80.82;96567.41;5282052;28;20286;-48
2022/04/22 04:41:17;;;;;;;24.27;21.67;;;5.70;99.90;;;6.69;81.23;96574.47;5277918;28;20568;-52
2022/04/22 04:43:52;;;;;;;23.60;21.00;;;5.80;99.90;;;6.75;81.50;96567.16;5278547;28;20226;-52
2022/04/22 04:46:26;;;;;;;25.47;22.70;;;5.90;99.90;;;6.69;80.98;96560.09;5283243;28;20313;-55
2022/04/22 04:49:01;;;;;;;27.43;24.40;;;5.90;99.90;;;6.68;81.93;96568.53;5280687;28;20342;-51
2022/04/22 04:51:34;;;;;;;24.00;21.67;;;5.80;99.90;;;6.79;82.29;96566.53;5278975;28;20298;-51
2022/04/22 04:54:07;;;;;;;26.10;23.30;;;6.00;99.90;;;6.82;82.92;96566.69;5276473;28;20310;-51
2022/04/22 04:56:40;;;;;;;24.47;21.97;;;6.00;99.90;;;6.86;81.78;96575.31;5281013;28;20311;-50
2022/04/22 04:59:16;;;;;;;24.50;22.00;;;6.10;99.90;;;6.90;80.69;96567.06;5281112;28;20198;-52
2022/04/22 05:01:49;;;;;;;23.77;20.53;;;6.00;99.90;;;6.97;80.66;96562.34;5282359;28;20618;-51
2022/04/22 05:04:23;;;;;;;24.17;21.80;;;6.10;99.90;;;7.04;81.02;96565.19;5282204;28;20274;-52
2022/04/22 05:06:56;;;;;;;24.57;21.93;;;6.20;99.90;;;7.06;81.01;96567.03;5280949;28;20222;-51
2022/04/22 05:09:29;;;;;;;26.37;23.47;;;6.20;99.90;;;7.09;81.17;96559.53;5283971;28;20209;-50
2022/04/22 05:12:03;;;;;;;26.10;23.43;;;6.30;99.90;;;7.10;80.90;96563.84;5277898;28;20285;-52
2022/04/22 05:14:37;;;;;;;24.67;21.93;;;6.40;99.90;;;7.14;80.78;96568.28;5276412;28;20207;-50
2022/04/22 05:17:10;;;;;;;25.23;22.47;;;6.40;99.90;;;7.25;80.38;96567.94;5281831;28;20221;-52
2022/04/22 05:19:43;;;;;;;24.93;22.40;;;6.40;99.90;;;7.29;79.57;96569.81;5275424;28;20249;-52
2022/04/22 05:22:16;;;;;;;24.60;21.87;;;6.40;99.90;;;7.46;79.61;96563.88;5276474;28;20270;-52
2022/04/22 05:24:49;;;;;;;25.60;22.93;;;6.50;99.90;;;7.65;79.57;96561.41;5279749;28;20290;-52
2022/04/22 05:27:22;;;;;;;26.00;23.33;;;6.70;99.90;;;7.98;78.91;96555.25;5285767;28;20227;-50
2022/04/22 05:32:53;;;;;;;25.03;22.53;;;7.30;99.90;;;8.84;75.75;96554.84;5220506;28;20268;-50
2022/04/22 05:35:28;;;;;;;25.20;22.53;;;7.80;99.90;;;8.82;73.57;96553.94;5283973;28;20225;-51
2022/04/22 05:38:04;;;;;;;25.27;22.57;;;8.00;99.90;;;9.27;72.81;96560.88;5283474;28;20226;-52
2022/04/22 05:40:39;;;;;;;24.90;22.33;;;8.20;99.90;;;9.61;71.78;96558.00;5270533;28;20258;-52
2022/04/22 05:43:12;;;;;;;24.63;22.13;;;8.50;99.90;;;10.00;69.91;96562.91;5276369;28;20198;-52
2022/04/22 05:45:46;;;;;;;23.27;20.97;;;9.00;99.90;;;10.15;69.73;96545.59;5280447;28;20219;-54
2022/04/22 05:48:19;;;;;;;24.03;21.53;;;9.10;99.90;;;10.50;68.16;96548.59;5280555;28;20281;-52
2022/04/22 05:50:52;;;;;;;23.93;21.43;;;9.20;99.90;;;10.33;68.14;96548.00;5279130;28;20218;-51
2022/04/22 05:53:25;;;;;;;23.90;21.60;;;9.00;99.90;;;10.50;66.99;96535.84;5275240;28;20312;-51
2022/04/22 05:55:58;;;;;;;23.20;20.80;;;9.30;99.90;;;10.99;65.87;96542.69;5278185;28;20479;-53
2022/04/22 05:58:31;;;;;;;24.37;21.97;;;9.60;99.90;;;11.25;63.85;96536.75;5280331;28;20256;-50
2022/04/22 06:01:05;;;;;;;24.13;21.67;;;10.20;99.90;;;11.16;64.44;96540.66;5287182;27;20234;-49
2022/04/22 06:03:38;;;;;;;24.70;22.13;;;10.20;99.90;;;11.51;63.54;96541.84;5278111;28;20203;-52
2022/04/22 06:06:11;;;;;;;25.47;22.80;;;10.20;99.90;;;11.87;62.53;96552.38;5284051;28;20247;-54
2022/04/22 06:11:35;;;;;;;25.63;23.00;;;10.50;99.90;;;11.97;61.50;96540.72;5283940;28;20204;-55
2022/04/22 06:14:09;;;;;;;23.57;21.20;;;10.40;99.90;;;12.01;61.97;96536.56;5279863;28;20223;-50
2022/04/22 06:16:43;;;;;;;24.50;22.20;;;10.40;99.90;;;12.32;61.01;96539.19;5280178;28;20296;-52
2022/04/22 06:19:18;;;;;;;24.88;22.48;;;10.70;99.90;;;12.71;60.91;96528.31;5283704;28;20207;-51
2022/04/22 06:21:51;;;;;;;22.85;20.65;;;10.90;99.90;;;13.18;57.33;96531.25;5274119;28;20281;-52
2022/04/22 06:24:24;;;;;;;24.25;21.83;;;11.50;99.20;;;13.19;57.76;96537.25;5282396;28;20187;-52
2022/04/22 06:26:58;;;;;;;24.23;21.92;;;11.50;99.30;;;13.53;56.72;96531.28;5271964;28;20841;-52
2022/04/22 06:29:32;;;;;;;25.42;23.02;;;11.70;98.90;;;12.90;59.22;96528.81;5276484;27;20635;-52
2022/04/22 06:32:08;;;;;;;23.08;21.02;;;11.80;99.00;;;13.75;57.07;96525.81;5277125;28;20270;-51
2022/04/22 06:34:42;;;;;;;23.63;21.42;;;11.90;98.80;;;13.77;56.29;96533.56;5279460;28;20250;-50
2022/04/22 06:37:15;;;;;;;24.25;22.00;;;11.90;98.40;;;13.79;56.65;96526.75;5284293;28;20246;-53
2022/04/22 06:45:48;;;;;;;22.55;20.35;;;12.30;96.90;;;13.93;56.54;96520.22;5274356;28;20306;-55
2022/04/22 06:48:29;;;;;;;24.05;21.85;;;12.50;97.00;;;13.61;56.84;96513.50;5278849;28;20195;-53
2022/04/22 06:51:19;;;;;;;22.75;20.65;;;12.40;97.10;;;14.04;55.42;96514.47;5279410;28;20286;-51
2022/04/22 06:53:53;;;;;;;23.70;21.50;;;12.60;96.60;;;13.91;54.85;96513.34;5279059;28;20598;-52
2022/04/22 06:56:27;;;;;;;22.77;20.58;;;12.50;96.50;;;14.02;55.39;96518.69;5273538;28;20338;-52
2022/04/22 06:59:01;;;;;;;23.80;21.60;;;12.50;96.80;;;13.59;55.86;96526.31;5283332;28;20194;-52
2022/04/22 07:01:34;;;;;;;23.85;21.63;;;12.30;96.40;;;13.75;56.06;96512.13;5283310;28;20245;-52
2022/04/22 07:04:18;;;;;;;22.77;20.73;;;12.30;96.90;;;14.15;56.46;96518.13;5275735;28;20299;-51
2022/04/22 07:06:51;;;;;;;22.42;20.38;;;12.80;97.00;;;14.41;55.57;96511.81;5280664;28;20302;-52
2022/04/22 07:09:25;;;;;;;21.88;19.88;;;13.00;96.60;;;14.77;53.38;96518.56;5278266;28;20279;-54
2022/04/22 07:11:59;;;;;;;21.65;19.75;;;13.30;95.60;;;15.15;52.71;96513.25;5275799;28;20299;-54
2022/04/22 07:14:35;;;;;;;21.55;19.63;;;13.70;94.80;;;15.39;50.91;96510.19;5282508;28;20341;-51
2022/04/22 07:17:10;;;;;;;21.70;19.70;;;13.90;94.10;;;15.14;51.05;96502.91;5277152;28;20215;-56
2022/04/22 07:19:45;;;;;;;21.60;19.63;;;13.80;93.80;;;15.36;50.33;96511.88;5278113;28;20251;-51
2022/04/22 07:22:18;;;;;;;21.40;19.45;;;13.90;93.50;;;15.22;51.21;96503.91;5273442;28;20333;-53
2022/04/22 07:24:52;;;;;;;22.02;20.10;;;13.80;94.00;;;14.98;51.95;96496.63;5276781;28;20225;-51
2022/04/22 07:27:28;;;;;;;22.98;20.77;;;13.60;93.60;;;15.29;50.66;96503.19;5271194;28;20297;-55
2022/04/22 07:30:02;;;;;;;21.67;19.67;;;13.90;93.40;;;14.96;51.72;96499.16;5279351;28;20274;-52
2022/04/22 07:32:37;;;;;;;21.58;19.67;;;13.70;93.70;;;15.17;51.36;96488.41;5272972;28;20203;-55
2022/04/22 07:35:13;;;;;;;20.35;18.50;;;14.00;93.40;;;15.39;49.65;96499.03;5277231;28;20304;-51
2022/04/22 07:37:49;;;;;;;21.98;20.08;;;14.30;92.50;;;15.55;49.63;96489.00;5271286;28;20287;-51
2022/04/22 07:40:24;;;;;;;19.35;17.65;;;14.40;92.30;;;15.76;49.92;96493.63;5279634;28;20226;-52
2022/04/22 07:48:55;;;;;;;20.75;18.92;;;15.20;91.30;;;16.50;47.88;96484.28;5289185;28;20191;-52
2022/04/22 07:51:30;;;;;;;20.23;18.42;;;15.30;91.10;;;16.79;47.42;96478.63;5281236;28;20648;-52
2022/04/22 07:54:04;;;;;;;19.92;18.13;;;15.70;90.80;;;16.82;46.58;96476.06;5278824;28;20299;-50
2022/04/22 07:56:37;;;;;;;18.75;17.15;;;15.90;90.10;;;16.65;47.27;96474.16;5282685;28;20211;-52
2022/04/22 07:59:10;;;;;;;20.27;18.48;;;15.90;90.00;;;16.55;47.01;96477.47;5284777;28;20203;-52
2022/04/22 08:01:43;;;;;;;21.50;19.65;;;15.50;89.80;;;16.33;47.56;96475.50;5288143;28;20204;-53
2022/04/22 08:04:16;;;;;;;21.45;19.60;;;15.30;90.30;;;16.27;47.53;96488.31;5281290;28;20192;-53
2022/04/22 08:06:51;;;;;;;21.00;19.15;;;15.30;90.10;;;16.17;48.03;96474.44;5287281;28;20219;-50
2022/04/22 08:09:45;;;;;;;20.50;18.60;;;15.20;90.50;;;16.02;48.33;96474.22;5278617;28;20218;-53
2022/04/22 08:12:19;;;;;;;20.10;18.25;;;14.90;90.60;;;16.17;47.54;96477.91;5279545;28;20195;-51
2022/04/22 08:14:57;;;;;;;19.58;17.88;;;15.20;90.30;;;15.62;49.42;96471.91;5288602;28;20670;-51
2022/04/22 08:17:36;;;;;;;19.48;17.63;;;14.80;90.80;;;15.76;49.61;96459.28;5286091;28;20717;-51
2022/04/22 08:20:11;;;;;;;18.33;16.73;;;15.20;90.70;;;15.77;49.19;96459.31;5283177;28;20559;-54
2022/04/22 08:22:46;;;;;;;19.38;17.67;;;15.10;90.40;;;16.02;49.40;96461.34;5280854;28;20282;-52
2022/04/22 08:25:19;;;;;;;17.85;16.35;;;15.40;90.60;;;16.41;47.80;96458.41;5286362;28;20229;-54
2022/04/22 08:27:52;;;;;;;18.42;16.83;;;15.80;88.90;;;16.34;49.16;96460.06;5283628;28;20282;-54
2022/04/22 08:30:26;;;;;;;17.08;15.68;;;15.80;90.40;;;16.53;48.47;96447.34;5282242;28;20203;-49
2022/04/22 08:33:01;;;;;;;16.58;15.07;;;16.00;90.00;;;16.72;46.98;96449.28;5287972;28;20644;-51
2022/04/22 08:35:37;;;;;;;17.90;16.35;;;16.10;88.10;;;16.85;46.83;96452.88;5288291;28;20313;-51
2022/04/22 08:38:11;;;;;;;18.17;16.70;;;16.20;88.10;;;16.83;47.24;96450.28;5285786;28;20233;-50
2022/04/22 08:40:44;;;;;;;18.13;16.63;;;16.00;89.10;;;16.75;47.94;96441.56;5280691;28;20236;-51
2022/04/22 08:43:21;;;;;;;17.20;15.70;;;16.20;88.90;;;16.48;48.02;96441.28;5280667;28;20204;-52
2022/04/22 08:45:54;;;;;;;18.50;16.90;;;16.00;88.80;;;16.66;47.26;96437.19;5288322;28;20242;-50
2022/04/22 08:51:25;;;;;;;16.02;14.52;;;16.10;88.00;;;16.86;47.57;96426.22;5287538;28;20293;-51
2022/04/22 08:53:59;;;;;;;17.50;16.02;;;16.20;88.80;;;16.98;45.23;96434.06;5272381;28;20281;-52
2022/04/22 08:56:34;;;;;;;15.52;14.15;;;16.50;85.70;;;17.18;45.77;96420.47;5286460;28;20297;-51
2022/04/22 08:59:07;;;;;;;15.88;14.48;;;16.60;86.50;;;17.09;45.56;96427.28;5283596;28;20294;-49
2022/04/22 09:01:40;;;;;;;15.20;13.95;;;16.70;85.30;;;17.42;46.80;96425.81;5280761;28;20227;-53
2022/04/22 09:04:13;;;;;;;15.05;13.82;;;17.00;86.60;;;17.44;44.56;96410.34;5287538;28;20206;-51
2022/04/22 09:06:50;;;;;;;16.08;14.77;;;16.90;84.40;;;17.51;44.17;96415.56;5286578;28;20424;-51
2022/04/22 09:09:25;;;;;;;14.90;13.63;;;16.90;83.40;;;17.30;44.75;96410.22;5279434;28;20255;-52
2022/04/22 09:12:11;;;;;;;14.55;13.43;;;16.70;84.80;;;17.68;44.77;96409.59;5277053;28;20207;-54
2022/04/22 09:14:45;;;;;;;15.85;14.50;;;17.10;84.00;;;17.87;43.41;96403.72;5273364;28;20728;-50
2022/04/22 09:17:24;;;;;;;14.05;12.95;;;17.40;82.50;;;17.89;44.74;96417.53;5286590;28;20690;-52
2022/04/22 09:19:58;;;;;;;15.80;14.50;;;17.50;84.30;;;17.77;43.50;96404.50;5280143;28;20299;-54
2022/04/22 09:22:35;;;;;;;14.63;13.43;;;17.30;82.20;;;17.59;44.01;96401.81;5274246;28;20203;-52
2022/04/22 09:25:10;;;;;;;15.63;14.23;;;17.20;82.80;;;17.58;44.45;96400.09;5276002;28;20275;-56
2022/04/22 09:27:44;;;;;;;14.93;13.75;;;17.20;83.20;;;17.40;44.37;96409.44;5273945;28;20219;-55
2022/04/22 09:30:17;;;;;;;15.35;13.98;;;16.90;83.20;;;17.43;44.74;96396.56;5275479;28;20298;-56
2022/04/22 09:32:50;;;;;;;13.73;12.60;;;17.00;84.00;;;17.78;44.38;96393.34;5272760;28;20294;-49
2022/04/22 09:35:23;;;;;;;15.48;14.07;;;17.30;82.80;;;17.70;44.45;96390.66;5275441;28;20329;-49
2022/04/22 09:43:45;;;;;;;16.58;15.13;;;17.20;82.10;;;17.69;44.16;96380.34;5284460;28;20695;-53
2022/04/22 09:46:27;;;;;;;15.50;14.10;;;17.30;82.20;;;17.64;43.91;96389.78;5290891;28;20745;-50
2022/04/22 09:49:01;;;;;;;13.63;12.43;;;17.20;82.20;;;17.41;44.47;96387.91;5288536;28;20192;-50
2022/04/22 09:51:34;;;;;;;12.35;11.35;;;16.90;83.30;;;17.45;43.96;96384.50;5287186;28;20282;-51
2022/04/22 09:54:10;;;;;;;14.73;13.50;;;16.90;82.70;;;17.10;44.62;96392.84;5280673;28;20231;-53
2022/04/22 09:56:56;;;;;;;14.32;13.13;;;16.70;83.50;;;17.21;44.34;96386.94;5283046;28;20308;-56
2022/04/22 09:59:32;;;;;;;12.40;11.40;;;16.70;83.50;;;17.23;44.50;96382.66;5289258;28;20191;-54
2022/04/22 10:02:07;;;;;;;13.68;12.57;;;16.80;82.70;;;17.07;44.89;96382.50;5288002;28;20251;-53
2022/04/22 10:04:42;;;;;;;14.30;13.13;;;16.60;83.00;;;17.18;44.09;96379.16;5281858;28;20203;-51
2022/04/22 10:07:17;;;;;;;12.60;11.55;;;16.60;82.40;;;17.45;44.70;96374.16;5290099;28;20227;-54
2022/04/22 10:09:57;;;;;;;13.63;12.43;;;17.00;83.40;;;17.71;43.92;96360.53;5284702;28;20196;-55
2022/04/22 10:12:34;;;;;;;13.68;12.57;;;17.30;81.70;;;17.79;43.07;96376.97;5289190;28;20666;-53
2022/04/22 10:15:09;;;;;;;12.60;11.50;;;17.40;81.10;;;17.47;43.94;96367.28;5288509;28;20290;-52
2022/04/22 10:17:44;;;;;;;12.52;11.52;;;17.10;81.80;;;17.71;44.66;96360.53;5291167;28;20222;-51
2022/04/22 10:20:17;;;;;;;12.98;11.88;;;17.30;83.20;;;18.05;42.80;96360.69;5291325;28;20729;-56
2022/04/22 10:22:51;;;;;;;15.63;14.27;;;17.70;80.60;;;17.56;43.42;96357.00;5281361;28;20660;-55
2022/04/22 10:25:24;;;;;;;13.45;12.30;;;17.20;80.90;;;17.45;45.04;96362.97;5285282;28;20250;-53
2022/04/22 10:28:03;;;;;;;12.65;11.55;;;17.10;83.20;;;17.48;44.29;96353.53;5283776;28;20282;-50
2022/04/22 10:30:40;;;;;;;13.65;12.40;;;17.10;82.00;;;17.86;43.34;96347.72;5288970;28;20244;-51
2022/04/22 10:33:13;;;;;;;13.32;12.15;;;17.50;81.30;;;17.79;43.58;96353.69;5290048;28;20206;-53
2022/04/22 10:35:47;;;;;;;13.25;12.15;;;17.50;81.50;;;18.04;44.29;96356.41;5285000;28;20270;-54
2022/04/22 10:38:31;;;;;;;13.63;12.52;;;17.80;82.30;;;18.28;42.76;96353.88;5290370;28;20213;-56
2022/04/22 10:41:06;;;;;;;12.45;11.45;;;18.00;80.10;;;18.53;42.12;96351.34;5288875;28;20708;-55
2022/04/22 10:43:41;;;;;;;11.80;10.82;;;18.20;79.40;;;18.60;42.83;96345.28;5279029;28;20198;-55
2022/04/22 10:49:15;;;;;;;12.88;11.88;;;18.50;79.60;;;18.95;41.14;96341.91;5253715;28;20587;-55
2022/04/22 10:52:09;;;;;;;10.65;9.85;;;18.40;78.60;;;18.90;41.66;96340.16;5285727;28;20290;-52
2022/04/22 10:55:07;;;;;;;12.25;11.15;;;18.40;79.50;;;19.16;41.57;96341.88;5277409;28;20231;-54
2022/04/22 10:57:42;;;;;;;10.95;10.02;;;18.70;79.90;;;19.26;41.99;96345.34;5276949;28;20191;-52
2022/04/22 11:00:31;;;;;;;13.98;12.75;;;18.70;80.20;;;19.20;39.76;96343.63;5287490;28;20660;-53
2022/04/22 11:03:15;;;;;;;12.75;11.75;;;18.70;77.30;;;18.79;40.83;96344.47;5275601;28;20666;-52
2022/04/22 11:05:51;;;;;;;11.90;10.90;;;18.30;78.30;;;18.99;41.24;96339.31;5283126;28;20301;-52
2022/04/22 11:08:32;;;;;;;13.95;12.77;;;18.40;79.00;;;18.72;41.09;96340.16;5285325;28;20689;-52
2022/04/22 11:11:15;;;;;;;14.18;12.98;;;18.20;79.00;;;18.56;41.57;96331.50;5283179;28;20639;-51
2022/04/22 11:13:52;;;;;;;13.95;12.77;;;17.90;79.20;;;18.39;41.31;96331.47;5288139;28;20250;-53
2022/04/22 11:16:30;;;;;;;13.00;11.90;;;17.90;79.20;;;18.24;42.60;96344.38;5281567;28;20250;-50
2022/04/22 11:19:27;;;;;;;14.90;13.60;;;17.60;80.00;;;18.24;42.17;96334.03;5279422;28;20255;-54
2022/04/22 11:22:00;;;;;;;13.60;12.50;;;17.70;80.30;;;18.13;41.94;96333.16;5283680;28;20195;-53
2022/04/22 11:24:36;;;;;;;13.13;12.02;;;17.50;79.40;;;18.26;42.66;96337.50;5278271;28;20226;-52
2022/04/22 11:27:11;;;;;;;12.35;11.35;;;17.60;80.60;;;18.41;42.14;96332.34;5286827;28;20221;-53
2022/04/22 11:29:44;;;;;;;12.52;11.52;;;17.80;79.90;;;18.57;41.56;96337.53;5280308;28;20218;-52
2022/04/22 11:32:21;;;;;;;10.98;10.18;;;17.90;79.10;;;18.26;41.05;96323.69;5273318;28;20204;-50
2022/04/22 11:35:14;;;;;;;10.52;9.73;;;17.80;78.20;;;18.40;39.83;96328.03;5275194;28;20196;-51
2022/04/22 11:37:58;;;;;;;11.05;10.15;;;17.90;76.00;;;18.52;40.08;96326.34;5271958;28;20261;-49
2022/04/22 11:40:35;;;;;;;10.60;9.68;;;18.10;76.80;;;18.62;40.19;96321.13;5267489;28;20440;-51
2022/04/22 11:43:10;;;;;;;10.90;10.00;;;18.10;77.00;;;18.73;40.20;96322.88;5272005;28;20223;-54